DAL1158 KOKC-KATL
Flight info
| Callsign | DAL1158 |
|---|---|
| Flight time | 1h 32m |
| Altitude | 37000 |
| Route | FUNNL3 PHARA FSM MEMFS HUTCC KNSAW RUSSA GLAVN2 |
| Aircraft | A319/M-SDE3FGHIRWY/LB1 |
Departure
| Time | 2026-05-08 10:40 |
|---|---|
| Airport | OKC Will Rogers World Airport (KOKC) |
Arrival
| Time | 2026-05-08 12:13 |
|---|---|
| Airport | Hartsfield Jackson Atlanta International Airport (KATL) |
| Time | Latitude | Longitude | Altitude | Speed | Heading |
|---|---|---|---|---|---|
| 2026-05-08 10:22 | 35.39490 | -97.59488 | 1301 ft | 0 kts | 310° |
| 2026-05-08 10:33 | 35.39485 | -97.59480 | 1301 ft | 4 kts | 310° |
| 2026-05-08 10:33 | 35.39467 | -97.59455 | 1301 ft | 4 kts | 310° |
| 2026-05-08 10:34 | 35.39450 | -97.59430 | 1301 ft | 4 kts | 310° |
| 2026-05-08 10:34 | 35.39433 | -97.59406 | 1300 ft | 2 kts | 310° |
| 2026-05-08 10:34 | 35.39432 | -97.59404 | 1300 ft | 1 kts | 310° |
| 2026-05-08 10:36 | 35.39433 | -97.59405 | 1300 ft | 0 kts | 319° |
| 2026-05-08 10:36 | 35.39437 | -97.59402 | 1300 ft | 1 kts | 4° |
| 2026-05-08 10:36 | 35.39437 | -97.59392 | 1300 ft | 3 kts | 82° |
| 2026-05-08 10:37 | 35.39445 | -97.59314 | 1299 ft | 15 kts | 82° |
| 2026-05-08 10:37 | 35.39465 | -97.59149 | 1298 ft | 23 kts | 77° |
| 2026-05-08 10:37 | 35.39585 | -97.59064 | 1296 ft | 22 kts | 0° |
| 2026-05-08 10:37 | 35.39735 | -97.59063 | 1299 ft | 21 kts | 360° |
| 2026-05-08 10:38 | 35.39878 | -97.59063 | 1298 ft | 21 kts | 360° |
| 2026-05-08 10:38 | 35.40027 | -97.59065 | 1297 ft | 21 kts | 359° |
| 2026-05-08 10:38 | 35.40171 | -97.59064 | 1299 ft | 20 kts | 2° |
| 2026-05-08 10:38 | 35.40312 | -97.59061 | 1296 ft | 21 kts | 359° |
| 2026-05-08 10:39 | 35.40457 | -97.59062 | 1297 ft | 20 kts | 11° |
| 2026-05-08 10:39 | 35.40505 | -97.58933 | 1300 ft | 17 kts | 92° |
| 2026-05-08 10:39 | 35.40419 | -97.58896 | 1301 ft | 14 kts | 181° |
| 2026-05-08 10:39 | 35.40195 | -97.58897 | 1299 ft | 66 kts | 180° |
| 2026-05-08 10:40 | 35.39502 | -97.58897 | 1295 ft | 130 kts | 180° |
| 2026-05-08 10:40 | 35.38470 | -97.58913 | 1500 ft | 158 kts | 183° |
| 2026-05-08 10:40 | 35.37367 | -97.58905 | 2178 ft | 158 kts | 181° |
| 2026-05-08 10:40 | 35.36278 | -97.58866 | 2870 ft | 155 kts | 182° |
| 2026-05-08 10:41 | 35.35154 | -97.58829 | 3265 ft | 172 kts | 182° |
| 2026-05-08 10:41 | 35.33872 | -97.58794 | 3555 ft | 196 kts | 181° |
| 2026-05-08 10:41 | 35.32459 | -97.58410 | 3921 ft | 224 kts | 152° |
| 2026-05-08 10:41 | 35.31365 | -97.56920 | 4293 ft | 255 kts | 114° |
| 2026-05-08 10:42 | 35.31140 | -97.54710 | 4969 ft | 269 kts | 88° |
| 2026-05-08 10:42 | 35.31362 | -97.52446 | 5843 ft | 274 kts | 80° |
| 2026-05-08 10:42 | 35.31733 | -97.50146 | 6705 ft | 278 kts | 77° |
| 2026-05-08 10:42 | 35.32143 | -97.47812 | 7508 ft | 283 kts | 77° |
| 2026-05-08 10:43 | 35.32546 | -97.45431 | 8321 ft | 288 kts | 78° |
| 2026-05-08 10:43 | 35.32927 | -97.43006 | 9133 ft | 293 kts | 78° |
| 2026-05-08 10:43 | 35.33293 | -97.40528 | 9926 ft | 298 kts | 78° |
| 2026-05-08 10:43 | 35.33652 | -97.37967 | 10385 ft | 316 kts | 79° |
| 2026-05-08 10:44 | 35.34021 | -97.35223 | 10799 ft | 332 kts | 79° |
| 2026-05-08 10:44 | 35.34395 | -97.32393 | 11469 ft | 339 kts | 79° |
| 2026-05-08 10:44 | 35.34775 | -97.29516 | 12199 ft | 345 kts | 79° |
| 2026-05-08 10:44 | 35.35160 | -97.26595 | 12923 ft | 350 kts | 79° |
| 2026-05-08 10:45 | 35.35550 | -97.23634 | 13649 ft | 355 kts | 79° |
| 2026-05-08 10:45 | 35.35944 | -97.20627 | 14293 ft | 359 kts | 79° |
| 2026-05-08 10:45 | 35.36342 | -97.17589 | 14919 ft | 364 kts | 79° |
| 2026-05-08 10:45 | 35.36747 | -97.14505 | 15567 ft | 369 kts | 79° |
| 2026-05-08 10:46 | 35.37158 | -97.11384 | 16196 ft | 373 kts | 80° |
| 2026-05-08 10:46 | 35.37572 | -97.08224 | 16821 ft | 378 kts | 80° |
| 2026-05-08 10:46 | 35.37986 | -97.05032 | 17437 ft | 382 kts | 80° |
| 2026-05-08 10:46 | 35.38405 | -97.01798 | 18060 ft | 387 kts | 80° |
| 2026-05-08 10:47 | 35.38832 | -96.98521 | 18607 ft | 391 kts | 80° |
| 2026-05-08 10:47 | 35.39266 | -96.95215 | 19126 ft | 395 kts | 80° |
| 2026-05-08 10:47 | 35.39700 | -96.91869 | 19649 ft | 400 kts | 81° |
| 2026-05-08 10:47 | 35.40075 | -96.88477 | 20161 ft | 404 kts | 83° |
| 2026-05-08 10:48 | 35.40375 | -96.85075 | 20679 ft | 408 kts | 85° |
| 2026-05-08 10:48 | 35.40635 | -96.81592 | 21169 ft | 413 kts | 85° |
| 2026-05-08 10:48 | 35.40886 | -96.78061 | 21661 ft | 418 kts | 85° |
| 2026-05-08 10:48 | 35.41146 | -96.74487 | 22165 ft | 422 kts | 85° |
| 2026-05-08 10:49 | 35.41418 | -96.70890 | 22669 ft | 427 kts | 85° |
| 2026-05-08 10:49 | 35.41706 | -96.67250 | 23169 ft | 431 kts | 85° |
| 2026-05-08 10:49 | 35.42006 | -96.63579 | 23650 ft | 435 kts | 85° |
| 2026-05-08 10:49 | 35.42311 | -96.59864 | 24065 ft | 439 kts | 85° |
| 2026-05-08 10:50 | 35.42615 | -96.56125 | 24497 ft | 442 kts | 85° |
| 2026-05-08 10:50 | 35.42920 | -96.52359 | 24927 ft | 445 kts | 85° |
| 2026-05-08 10:50 | 35.43223 | -96.48564 | 25356 ft | 449 kts | 85° |
| 2026-05-08 10:50 | 35.43526 | -96.44741 | 25762 ft | 452 kts | 85° |
| 2026-05-08 10:51 | 35.43830 | -96.40891 | 26149 ft | 456 kts | 86° |
| 2026-05-08 10:51 | 35.44134 | -96.37003 | 26553 ft | 459 kts | 86° |
| 2026-05-08 10:51 | 35.44436 | -96.33088 | 26950 ft | 463 kts | 86° |
| 2026-05-08 10:51 | 35.44740 | -96.29142 | 27348 ft | 466 kts | 86° |
| 2026-05-08 10:52 | 35.45048 | -96.25182 | 27730 ft | 469 kts | 86° |
| 2026-05-08 10:52 | 35.45360 | -96.21181 | 28114 ft | 472 kts | 86° |
| 2026-05-08 10:52 | 35.45673 | -96.17160 | 28495 ft | 475 kts | 86° |
| 2026-05-08 10:52 | 35.45987 | -96.13114 | 28868 ft | 478 kts | 86° |
| 2026-05-08 10:53 | 35.46296 | -96.09054 | 29229 ft | 481 kts | 86° |
| 2026-05-08 10:53 | 35.46379 | -96.04946 | 29520 ft | 483 kts | 95° |
| 2026-05-08 10:53 | 35.46226 | -96.00804 | 29840 ft | 487 kts | 95° |
| 2026-05-08 10:53 | 35.46071 | -95.96640 | 30166 ft | 490 kts | 95° |
| 2026-05-08 10:54 | 35.45918 | -95.92515 | 30443 ft | 493 kts | 95° |
| 2026-05-08 10:54 | 35.45764 | -95.88300 | 30730 ft | 496 kts | 96° |
| 2026-05-08 10:54 | 35.45609 | -95.84056 | 31008 ft | 499 kts | 96° |
| 2026-05-08 10:54 | 35.45454 | -95.79788 | 31281 ft | 502 kts | 96° |
| 2026-05-08 10:55 | 35.45299 | -95.75491 | 31553 ft | 506 kts | 96° |
| 2026-05-08 10:55 | 35.45140 | -95.71169 | 31821 ft | 509 kts | 96° |
| 2026-05-08 10:55 | 35.44978 | -95.66811 | 32010 ft | 514 kts | 96° |
| 2026-05-08 10:55 | 35.44812 | -95.62410 | 32238 ft | 518 kts | 96° |
| 2026-05-08 10:56 | 35.44642 | -95.57983 | 32505 ft | 521 kts | 96° |
| 2026-05-08 10:56 | 35.44469 | -95.53546 | 32868 ft | 521 kts | 96° |
| 2026-05-08 10:56 | 35.44291 | -95.49094 | 33214 ft | 522 kts | 97° |
| 2026-05-08 10:56 | 35.44109 | -95.44651 | 33579 ft | 522 kts | 97° |
| 2026-05-08 10:57 | 35.43925 | -95.40197 | 33925 ft | 523 kts | 97° |
| 2026-05-08 10:57 | 35.43742 | -95.35733 | 34220 ft | 524 kts | 97° |
| 2026-05-08 10:57 | 35.43378 | -95.26795 | 34722 ft | 527 kts | 97° |
| 2026-05-08 10:58 | 35.43194 | -95.22304 | 34984 ft | 527 kts | 97° |
| 2026-05-08 10:58 | 35.43009 | -95.17813 | 35264 ft | 527 kts | 97° |
| 2026-05-08 10:58 | 35.42819 | -95.13322 | 35540 ft | 527 kts | 97° |
| 2026-05-08 10:58 | 35.42624 | -95.08840 | 35807 ft | 527 kts | 97° |
| 2026-05-08 10:59 | 35.42429 | -95.04409 | 36073 ft | 527 kts | 97° |
| 2026-05-08 10:59 | 35.42232 | -94.99918 | 36323 ft | 528 kts | 97° |
| 2026-05-08 10:59 | 35.42038 | -94.95425 | 36594 ft | 528 kts | 97° |
| 2026-05-08 10:59 | 35.41845 | -94.90922 | 36751 ft | 530 kts | 98° |
| 2026-05-08 11:00 | 35.41646 | -94.86399 | 36917 ft | 532 kts | 98° |
| 2026-05-08 11:00 | 35.41441 | -94.81857 | 37020 ft | 530 kts | 98° |
| 2026-05-08 11:00 | 35.41241 | -94.77394 | 37038 ft | 519 kts | 98° |
| 2026-05-08 11:00 | 35.41045 | -94.73008 | 37036 ft | 514 kts | 98° |
| 2026-05-08 11:01 | 35.40637 | -94.64265 | 37040 ft | 514 kts | 99° |
| 2026-05-08 11:01 | 35.40214 | -94.55527 | 37036 ft | 515 kts | 99° |
| 2026-05-08 11:02 | 35.39576 | -94.42325 | 37055 ft | 517 kts | 99° |
| 2026-05-08 11:03 | 35.39154 | -94.33523 | 37057 ft | 518 kts | 99° |
| 2026-05-08 11:03 | 35.38713 | -94.24707 | 37059 ft | 517 kts | 99° |
| 2026-05-08 11:04 | 35.38133 | -94.15926 | 37056 ft | 517 kts | 101° |
| 2026-05-08 11:04 | 35.37462 | -94.07157 | 37046 ft | 517 kts | 101° |
| 2026-05-08 11:05 | 35.36914 | -93.99855 | 37043 ft | 518 kts | 101° |
| 2026-05-08 11:05 | 35.36173 | -93.89574 | 37046 ft | 518 kts | 101° |
| 2026-05-08 11:06 | 35.35543 | -93.80774 | 37049 ft | 518 kts | 101° |
| 2026-05-08 11:06 | 35.34905 | -93.71968 | 37033 ft | 519 kts | 101° |
| 2026-05-08 11:07 | 35.34258 | -93.63205 | 37036 ft | 520 kts | 101° |
| 2026-05-08 11:07 | 35.33596 | -93.54383 | 37040 ft | 520 kts | 101° |
| 2026-05-08 11:08 | 35.32927 | -93.45555 | 37046 ft | 520 kts | 101° |
| 2026-05-08 11:08 | 35.32366 | -93.38158 | 37052 ft | 520 kts | 101° |
| 2026-05-08 11:09 | 35.31692 | -93.29329 | 37058 ft | 520 kts | 101° |
| 2026-05-08 11:09 | 35.31005 | -93.20507 | 37068 ft | 521 kts | 101° |
| 2026-05-08 11:10 | 35.30314 | -93.11673 | 37070 ft | 521 kts | 101° |
| 2026-05-08 11:10 | 35.29618 | -93.02861 | 37079 ft | 521 kts | 101° |
| 2026-05-08 11:11 | 35.28913 | -92.94031 | 37060 ft | 521 kts | 101° |
| 2026-05-08 11:11 | 35.28210 | -92.85258 | 37058 ft | 522 kts | 101° |
| 2026-05-08 11:12 | 35.27493 | -92.76420 | 37053 ft | 522 kts | 101° |
| 2026-05-08 11:12 | 35.26763 | -92.67598 | 37057 ft | 521 kts | 101° |
| 2026-05-08 11:13 | 35.26028 | -92.58759 | 37053 ft | 522 kts | 101° |
| 2026-05-08 11:13 | 35.25292 | -92.49934 | 37054 ft | 522 kts | 101° |
| 2026-05-08 11:14 | 35.24543 | -92.41099 | 37057 ft | 522 kts | 101° |
| 2026-05-08 11:14 | 35.23798 | -92.32259 | 37060 ft | 522 kts | 101° |
| 2026-05-08 11:15 | 35.23048 | -92.23419 | 37067 ft | 523 kts | 101° |
| 2026-05-08 11:15 | 35.22284 | -92.14579 | 37039 ft | 522 kts | 102° |
| 2026-05-08 11:16 | 35.21511 | -92.05745 | 37060 ft | 523 kts | 102° |
| 2026-05-08 11:16 | 35.20735 | -91.96897 | 37072 ft | 523 kts | 102° |
| 2026-05-08 11:17 | 35.19949 | -91.88059 | 37064 ft | 523 kts | 102° |
| 2026-05-08 11:17 | 35.19153 | -91.79220 | 37080 ft | 523 kts | 102° |
| 2026-05-08 11:18 | 35.18352 | -91.70371 | 37082 ft | 524 kts | 102° |
| 2026-05-08 11:18 | 35.17548 | -91.61531 | 37084 ft | 524 kts | 102° |
| 2026-05-08 11:19 | 35.16738 | -91.52682 | 37096 ft | 524 kts | 102° |
| 2026-05-08 11:19 | 35.15920 | -91.43828 | 37091 ft | 524 kts | 102° |
| 2026-05-08 11:20 | 35.15092 | -91.34973 | 37097 ft | 525 kts | 102° |
| 2026-05-08 11:20 | 35.14260 | -91.26097 | 37098 ft | 525 kts | 102° |
| 2026-05-08 11:21 | 35.13430 | -91.17243 | 37086 ft | 525 kts | 102° |
| 2026-05-08 11:21 | 35.12592 | -91.08441 | 37073 ft | 525 kts | 102° |
| 2026-05-08 11:22 | 35.11734 | -90.99577 | 37074 ft | 526 kts | 102° |
| 2026-05-08 11:22 | 35.10873 | -90.90701 | 37073 ft | 526 kts | 102° |
| 2026-05-08 11:23 | 35.10007 | -90.81830 | 37085 ft | 526 kts | 102° |
| 2026-05-08 11:23 | 35.09134 | -90.72937 | 37088 ft | 526 kts | 102° |
| 2026-05-08 11:24 | 35.08252 | -90.64071 | 37081 ft | 527 kts | 102° |
| 2026-05-08 11:24 | 35.07366 | -90.55188 | 37071 ft | 527 kts | 102° |
| 2026-05-08 11:25 | 35.06476 | -90.46296 | 37069 ft | 527 kts | 102° |
| 2026-05-08 11:25 | 35.05574 | -90.37415 | 37078 ft | 527 kts | 102° |
| 2026-05-08 11:26 | 35.04663 | -90.28536 | 37072 ft | 528 kts | 102° |
| 2026-05-08 11:26 | 35.03754 | -90.19648 | 37072 ft | 528 kts | 102° |
| 2026-05-08 11:27 | 35.02829 | -90.10758 | 37075 ft | 528 kts | 103° |
| 2026-05-08 11:27 | 35.01895 | -90.01869 | 37075 ft | 528 kts | 103° |
| 2026-05-08 11:28 | 35.00889 | -89.93004 | 37062 ft | 527 kts | 105° |
| 2026-05-08 11:28 | 34.99645 | -89.84210 | 37078 ft | 526 kts | 107° |
| 2026-05-08 11:29 | 34.98328 | -89.75445 | 37076 ft | 526 kts | 106° |
| 2026-05-08 11:29 | 34.97054 | -89.66657 | 37088 ft | 526 kts | 106° |
| 2026-05-08 11:30 | 34.95815 | -89.57859 | 37090 ft | 526 kts | 105° |
| 2026-05-08 11:30 | 34.94571 | -89.49059 | 37087 ft | 526 kts | 106° |
| 2026-05-08 11:31 | 34.93318 | -89.40270 | 37088 ft | 526 kts | 106° |
| 2026-05-08 11:31 | 34.92052 | -89.31488 | 37090 ft | 526 kts | 106° |
| 2026-05-08 11:32 | 34.90774 | -89.22713 | 37088 ft | 526 kts | 106° |
| 2026-05-08 11:32 | 34.89490 | -89.13952 | 37088 ft | 526 kts | 106° |
| 2026-05-08 11:33 | 34.88201 | -89.05176 | 37081 ft | 526 kts | 106° |
| 2026-05-08 11:33 | 34.86914 | -88.96397 | 37093 ft | 526 kts | 106° |
| 2026-05-08 11:34 | 34.85618 | -88.87643 | 37095 ft | 526 kts | 106° |
| 2026-05-08 11:34 | 34.84320 | -88.78920 | 37096 ft | 526 kts | 106° |
| 2026-05-08 11:35 | 34.83011 | -88.70159 | 37094 ft | 526 kts | 106° |
| 2026-05-08 11:35 | 34.81691 | -88.61400 | 37098 ft | 526 kts | 106° |
| 2026-05-08 11:36 | 34.80368 | -88.52640 | 37090 ft | 526 kts | 106° |
| 2026-05-08 11:36 | 34.79038 | -88.43877 | 37096 ft | 527 kts | 106° |
| 2026-05-08 11:37 | 34.77699 | -88.35114 | 37090 ft | 527 kts | 106° |
| 2026-05-08 11:37 | 34.76362 | -88.26342 | 37083 ft | 527 kts | 106° |
| 2026-05-08 11:38 | 34.75010 | -88.17577 | 37086 ft | 527 kts | 106° |
| 2026-05-08 11:38 | 34.73646 | -88.08822 | 37073 ft | 527 kts | 106° |
| 2026-05-08 11:39 | 34.72284 | -88.00061 | 37084 ft | 527 kts | 106° |
| 2026-05-08 11:39 | 34.70913 | -87.91291 | 37100 ft | 529 kts | 106° |
| 2026-05-08 11:40 | 34.69531 | -87.82500 | 37121 ft | 530 kts | 106° |
| 2026-05-08 11:40 | 34.68137 | -87.73719 | 37123 ft | 529 kts | 106° |
| 2026-05-08 11:41 | 34.66753 | -87.65011 | 37122 ft | 524 kts | 106° |
| 2026-05-08 11:41 | 34.66065 | -87.60661 | 36718 ft | 525 kts | 106° |
| 2026-05-08 11:41 | 34.65369 | -87.56260 | 36211 ft | 524 kts | 106° |
| 2026-05-08 11:41 | 34.64676 | -87.51918 | 35724 ft | 523 kts | 106° |
| 2026-05-08 11:42 | 34.63980 | -87.47585 | 35242 ft | 522 kts | 106° |
| 2026-05-08 11:42 | 34.63293 | -87.43320 | 34776 ft | 521 kts | 106° |
| 2026-05-08 11:42 | 34.62575 | -87.39011 | 34311 ft | 520 kts | 107° |
| 2026-05-08 11:42 | 34.61815 | -87.34740 | 33815 ft | 518 kts | 108° |
| 2026-05-08 11:43 | 34.61021 | -87.30483 | 33293 ft | 516 kts | 108° |
| 2026-05-08 11:43 | 34.60218 | -87.26273 | 33050 ft | 507 kts | 108° |
| 2026-05-08 11:43 | 34.59430 | -87.22146 | 33095 ft | 498 kts | 108° |
| 2026-05-08 11:44 | 34.57888 | -87.13987 | 33112 ft | 495 kts | 108° |
| 2026-05-08 11:44 | 34.56397 | -87.05841 | 33119 ft | 495 kts | 107° |
| 2026-05-08 11:45 | 34.55000 | -86.97655 | 33121 ft | 495 kts | 106° |
| 2026-05-08 11:45 | 34.53640 | -86.90941 | 33111 ft | 490 kts | 113° |
| 2026-05-08 11:46 | 34.51605 | -86.83034 | 33106 ft | 490 kts | 114° |
| 2026-05-08 11:46 | 34.49221 | -86.73888 | 33093 ft | 489 kts | 114° |
| 2026-05-08 11:47 | 34.47165 | -86.66019 | 33092 ft | 489 kts | 114° |
| 2026-05-08 11:47 | 34.45441 | -86.59441 | 33089 ft | 489 kts | 114° |
| 2026-05-08 11:48 | 34.43376 | -86.51586 | 33087 ft | 489 kts | 114° |
| 2026-05-08 11:48 | 34.41307 | -86.43738 | 33098 ft | 489 kts | 114° |
| 2026-05-08 11:49 | 34.39243 | -86.35896 | 33115 ft | 488 kts | 114° |
| 2026-05-08 11:49 | 34.37175 | -86.28065 | 33121 ft | 488 kts | 114° |
| 2026-05-08 11:50 | 34.35096 | -86.20251 | 33084 ft | 488 kts | 114° |
| 2026-05-08 11:50 | 34.32989 | -86.12371 | 32857 ft | 505 kts | 113° |
| 2026-05-08 11:50 | 34.31904 | -86.08286 | 32598 ft | 514 kts | 113° |
| 2026-05-08 11:51 | 34.30831 | -86.04150 | 32341 ft | 515 kts | 112° |
| 2026-05-08 11:51 | 34.29775 | -86.00009 | 32102 ft | 514 kts | 112° |
| 2026-05-08 11:51 | 34.28728 | -85.95885 | 31873 ft | 510 kts | 112° |
| 2026-05-08 11:51 | 34.27690 | -85.91808 | 31471 ft | 505 kts | 112° |
| 2026-05-08 11:52 | 34.26649 | -85.87764 | 31045 ft | 502 kts | 112° |
| 2026-05-08 11:52 | 34.25615 | -85.83803 | 30623 ft | 499 kts | 112° |
| 2026-05-08 11:52 | 34.24555 | -85.79758 | 30187 ft | 497 kts | 112° |
| 2026-05-08 11:52 | 34.23524 | -85.75841 | 29722 ft | 494 kts | 112° |
| 2026-05-08 11:53 | 34.22489 | -85.71899 | 29294 ft | 490 kts | 112° |
| 2026-05-08 11:53 | 34.21461 | -85.67992 | 28862 ft | 487 kts | 112° |
| 2026-05-08 11:53 | 34.20438 | -85.64111 | 28452 ft | 483 kts | 112° |
| 2026-05-08 11:53 | 34.19423 | -85.60258 | 28043 ft | 480 kts | 112° |
| 2026-05-08 11:54 | 34.18413 | -85.56430 | 27624 ft | 477 kts | 112° |
| 2026-05-08 11:54 | 34.17408 | -85.52622 | 27206 ft | 474 kts | 112° |
| 2026-05-08 11:54 | 34.16406 | -85.48840 | 26791 ft | 472 kts | 112° |
| 2026-05-08 11:54 | 34.15410 | -85.45077 | 26347 ft | 470 kts | 112° |
| 2026-05-08 11:55 | 34.14417 | -85.41324 | 25905 ft | 468 kts | 112° |
| 2026-05-08 11:55 | 34.13430 | -85.37594 | 25455 ft | 467 kts | 112° |
| 2026-05-08 11:55 | 34.12453 | -85.33862 | 24963 ft | 465 kts | 111° |
| 2026-05-08 11:55 | 34.11487 | -85.30142 | 24541 ft | 464 kts | 111° |
| 2026-05-08 11:56 | 34.10526 | -85.26430 | 24067 ft | 463 kts | 111° |
| 2026-05-08 11:56 | 34.09569 | -85.22726 | 23591 ft | 462 kts | 111° |
| 2026-05-08 11:56 | 34.08618 | -85.19042 | 23162 ft | 458 kts | 111° |
| 2026-05-08 11:56 | 34.07673 | -85.15385 | 22769 ft | 453 kts | 111° |
| 2026-05-08 11:57 | 34.06732 | -85.11764 | 22204 ft | 453 kts | 111° |
| 2026-05-08 11:57 | 34.05688 | -85.08231 | 21922 ft | 441 kts | 120° |
| 2026-05-08 11:57 | 34.04197 | -85.05066 | 21478 ft | 430 kts | 132° |
| 2026-05-08 11:57 | 34.02289 | -85.02361 | 21015 ft | 418 kts | 143° |
| 2026-05-08 11:58 | 34.00127 | -85.00075 | 20573 ft | 411 kts | 148° |
| 2026-05-08 11:58 | 33.97956 | -84.97839 | 20091 ft | 410 kts | 147° |
| 2026-05-08 11:58 | 33.95813 | -84.95611 | 19770 ft | 404 kts | 147° |
| 2026-05-08 11:59 | 33.91568 | -84.91184 | 18894 ft | 401 kts | 146° |
| 2026-05-08 11:59 | 33.89470 | -84.89004 | 18492 ft | 398 kts | 146° |
| 2026-05-08 11:59 | 33.87377 | -84.86839 | 18062 ft | 395 kts | 146° |
| 2026-05-08 11:59 | 33.85298 | -84.84689 | 17620 ft | 393 kts | 146° |
| 2026-05-08 12:00 | 33.83234 | -84.82555 | 17104 ft | 391 kts | 147° |
| 2026-05-08 12:00 | 33.81163 | -84.80417 | 16680 ft | 389 kts | 146° |
| 2026-05-08 12:00 | 33.79107 | -84.78297 | 16231 ft | 388 kts | 146° |
| 2026-05-08 12:00 | 33.77066 | -84.76190 | 15795 ft | 387 kts | 146° |
| 2026-05-08 12:01 | 33.75214 | -84.73826 | 15415 ft | 394 kts | 130° |
| 2026-05-08 12:01 | 33.73925 | -84.70912 | 15054 ft | 397 kts | 112° |
| 2026-05-08 12:01 | 33.73325 | -84.67665 | 14680 ft | 397 kts | 94° |
| 2026-05-08 12:01 | 33.73268 | -84.64346 | 14260 ft | 396 kts | 89° |
| 2026-05-08 12:02 | 33.73269 | -84.61105 | 13962 ft | 391 kts | 88° |
| 2026-05-08 12:02 | 33.73278 | -84.57803 | 13540 ft | 389 kts | 88° |
| 2026-05-08 12:02 | 33.73290 | -84.54562 | 13171 ft | 386 kts | 88° |
| 2026-05-08 12:02 | 33.73300 | -84.51356 | 12818 ft | 381 kts | 88° |
| 2026-05-08 12:03 | 33.73301 | -84.48224 | 12468 ft | 377 kts | 89° |
| 2026-05-08 12:03 | 33.73299 | -84.45088 | 12117 ft | 373 kts | 89° |
| 2026-05-08 12:03 | 33.73296 | -84.41981 | 11750 ft | 370 kts | 89° |
| 2026-05-08 12:03 | 33.73297 | -84.38915 | 11483 ft | 363 kts | 89° |
| 2026-05-08 12:04 | 33.73298 | -84.35937 | 11311 ft | 349 kts | 89° |
| 2026-05-08 12:04 | 33.73296 | -84.33067 | 11049 ft | 340 kts | 89° |
| 2026-05-08 12:04 | 33.73292 | -84.30251 | 10672 ft | 335 kts | 89° |
| 2026-05-08 12:04 | 33.73293 | -84.27460 | 10260 ft | 331 kts | 89° |
| 2026-05-08 12:05 | 33.73296 | -84.24713 | 9850 ft | 327 kts | 89° |
| 2026-05-08 12:05 | 33.73301 | -84.21998 | 9403 ft | 323 kts | 89° |
| 2026-05-08 12:05 | 33.73306 | -84.19318 | 8966 ft | 319 kts | 89° |
| 2026-05-08 12:05 | 33.73310 | -84.16677 | 8555 ft | 313 kts | 89° |
| 2026-05-08 12:06 | 33.73312 | -84.14080 | 8102 ft | 309 kts | 89° |
| 2026-05-08 12:06 | 33.73313 | -84.11512 | 7647 ft | 305 kts | 89° |
| 2026-05-08 12:06 | 33.73125 | -84.08999 | 7229 ft | 300 kts | 106° |
| 2026-05-08 12:06 | 33.72268 | -84.06781 | 6843 ft | 291 kts | 128° |
| 2026-05-08 12:07 | 33.70845 | -84.05138 | 6525 ft | 277 kts | 150° |
| 2026-05-08 12:07 | 33.69138 | -84.04218 | 6177 ft | 264 kts | 170° |
| 2026-05-08 12:07 | 33.67363 | -84.04121 | 5736 ft | 252 kts | 198° |
| 2026-05-08 12:07 | 33.65873 | -84.05094 | 5355 ft | 242 kts | 229° |
| 2026-05-08 12:08 | 33.65035 | -84.06786 | 5013 ft | 235 kts | 258° |
| 2026-05-08 12:08 | 33.64909 | -84.08729 | 4975 ft | 237 kts | 272° |
| 2026-05-08 12:08 | 33.64917 | -84.10717 | 4971 ft | 239 kts | 272° |
| 2026-05-08 12:08 | 33.64921 | -84.12718 | 4976 ft | 240 kts | 272° |
| 2026-05-08 12:09 | 33.64925 | -84.14718 | 4972 ft | 240 kts | 272° |
| 2026-05-08 12:09 | 33.64929 | -84.16725 | 4869 ft | 241 kts | 272° |
| 2026-05-08 12:09 | 33.64933 | -84.18737 | 4594 ft | 240 kts | 272° |
| 2026-05-08 12:09 | 33.64936 | -84.20747 | 4295 ft | 240 kts | 272° |
| 2026-05-08 12:10 | 33.64939 | -84.22758 | 3973 ft | 242 kts | 272° |
| 2026-05-08 12:10 | 33.64942 | -84.24779 | 3653 ft | 243 kts | 272° |
| 2026-05-08 12:10 | 33.64945 | -84.26808 | 3328 ft | 242 kts | 272° |
| 2026-05-08 12:10 | 33.64946 | -84.28783 | 3028 ft | 234 kts | 271° |
| 2026-05-08 12:11 | 33.64948 | -84.30725 | 2709 ft | 229 kts | 272° |
| 2026-05-08 12:11 | 33.64949 | -84.32568 | 2414 ft | 219 kts | 272° |
| 2026-05-08 12:11 | 33.64951 | -84.34388 | 2155 ft | 209 kts | 272° |
| 2026-05-08 12:11 | 33.64951 | -84.36068 | 1858 ft | 199 kts | 272° |
| 2026-05-08 12:12 | 33.64952 | -84.37675 | 1593 ft | 185 kts | 271° |
| 2026-05-08 12:12 | 33.64952 | -84.39153 | 1356 ft | 166 kts | 271° |
| 2026-05-08 12:12 | 33.64952 | -84.40466 | 1119 ft | 146 kts | 271° |
| 2026-05-08 12:12 | 33.64953 | -84.41591 | 1036 ft | 109 kts | 270° |
| 2026-05-08 12:13 | 33.64952 | -84.42178 | 1036 ft | 25 kts | 270° |
| 2026-05-08 12:13 | 33.64926 | -84.42314 | 1035 ft | 17 kts | 240° |
| 2026-05-08 12:13 | 33.64816 | -84.42337 | 1035 ft | 17 kts | 181° |
| 2026-05-08 12:13 | 33.64695 | -84.42340 | 1034 ft | 18 kts | 181° |
| 2026-05-08 12:14 | 33.64571 | -84.42341 | 1035 ft | 18 kts | 180° |
| 2026-05-08 12:14 | 33.64478 | -84.42391 | 1035 ft | 16 kts | 261° |
| 2026-05-08 12:14 | 33.64468 | -84.42527 | 1035 ft | 17 kts | 268° |
| 2026-05-08 12:14 | 33.64467 | -84.42669 | 1035 ft | 17 kts | 271° |
| 2026-05-08 12:15 | 33.64517 | -84.42793 | 1035 ft | 17 kts | 316° |
| 2026-05-08 12:15 | 33.64542 | -84.42931 | 1036 ft | 18 kts | 271° |
| 2026-05-08 12:15 | 33.64541 | -84.43079 | 1036 ft | 18 kts | 269° |
| 2026-05-08 12:15 | 33.64543 | -84.43230 | 1036 ft | 18 kts | 270° |
| 2026-05-08 12:16 | 33.64542 | -84.43387 | 1036 ft | 19 kts | 270° |
| 2026-05-08 12:16 | 33.64543 | -84.43549 | 1036 ft | 20 kts | 269° |
| 2026-05-08 12:16 | 33.64519 | -84.43704 | 1036 ft | 19 kts | 218° |
| 2026-05-08 12:16 | 33.64387 | -84.43726 | 1035 ft | 19 kts | 178° |
| 2026-05-08 12:17 | 33.64251 | -84.43721 | 1035 ft | 20 kts | 179° |
| 2026-05-08 12:17 | 33.64113 | -84.43723 | 1035 ft | 20 kts | 180° |
| 2026-05-08 12:17 | 33.63996 | -84.43723 | 1035 ft | 12 kts | 180° |
| 2026-05-08 12:17 | 33.63914 | -84.43723 | 1035 ft | 12 kts | 179° |
| 2026-05-08 12:18 | 33.63877 | -84.43664 | 1035 ft | 7 kts | 94° |
| 2026-05-08 12:18 | 33.63877 | -84.43635 | 1035 ft | 0 kts | 89° |